»·PEaware :: N86PD KPSP-KSAN

N86PD :: KPSP-KSAN

FLIGHT INFORMATION

Flight Status: Arrived
Operator: Privately registered:
United States
More flights under this callsign
Pilot: Noam B. (29261)
Aircraft: CESSNA 340
(C340)
More flights by this aircraft type
Origin: KPSP Palm Springs Intl
United States
Destination: KSAN San Diego Intl-Lindbergh
United States
More flights between these airports :: More routes between these airports
Route: +CATH1 PSP TRM V514 MZB
File this flight plan on PilotEdge
Remarks:
Altitude:
(Current/Filed)
10,000ft
Speed:
(Current/Filed)
190kts
Departed: 02-Jun-20 08:03 PM
Arrived: 02-Jun-20 08:46 PM
Distance/Time
Traveled:
74nm/0:43
Distance/Time
To Go:
Arrived

Flight Plot

Page will automatically refresh every two minutes.


Map Options




Map Legend


Flown Route
Filed Route
Departure Airport
Arrival Airport
Navaid (VOR, NDB)
Fix

Horizontal Profiles

Position Reports

Time Latitude Longitude Heading Altitude Ground
Speed
02-Jun-20 19:50 33.821623 -116.496772 55 398ft 0kts
02-Jun-20 19:51 33.821623 -116.496772 55 398ft 0kts
02-Jun-20 19:52 33.821623 -116.496772 55 398ft 0kts
02-Jun-20 19:53 33.821623 -116.496772 55 398ft 0kts
02-Jun-20 19:54 33.821623 -116.496772 55 398ft 0kts
02-Jun-20 19:55 33.821623 -116.496772 55 398ft 0kts
02-Jun-20 19:56 33.821623 -116.496772 55 398ft 0kts
02-Jun-20 19:57 33.821623 -116.496772 55 398ft 0kts
02-Jun-20 19:58 33.821634 -116.496753 55 398ft 2kts
02-Jun-20 19:59 33.821883 -116.496679 137 398ft 9kts
02-Jun-20 20:00 33.820311 -116.495420 204 392ft 0kts
02-Jun-20 20:01 33.819624 -116.496472 234 398ft 10kts
02-Jun-20 20:02 33.826784 -116.505236 320 523ft 99kts
02-Jun-20 20:03 33.849757 -116.527914 322 1951ft 108kts
02-Jun-20 20:04 33.872455 -116.551306 322 3135ft 110kts
02-Jun-20 20:05 33.897422 -116.570598 19 4221ft 113kts
02-Jun-20 20:06 33.900951 -116.533896 101 5395ft 123kts
02-Jun-20 20:07 33.889878 -116.494762 105 6516ft 127kts
02-Jun-20 20:08 33.874827 -116.452382 129 7014ft 166kts
02-Jun-20 20:09 33.847682 -116.403392 117 6994ft 182kts
02-Jun-20 20:10 33.817467 -116.361624 141 7947ft 154kts
02-Jun-20 20:11 33.784344 -116.334040 142 9033ft 143kts
02-Jun-20 20:12 33.750924 -116.305417 142 9835ft 149kts
02-Jun-20 20:13 33.718485 -116.267518 126 9977ft 180kts
02-Jun-20 20:14 33.683122 -116.221815 135 9971ft 189kts
02-Jun-20 20:15 33.644342 -116.178162 136 9970ft 190kts
02-Jun-20 20:16 33.596594 -116.190048 211 9971ft 193kts
02-Jun-20 20:17 33.551941 -116.227263 215 9845ft 194kts
02-Jun-20 20:18 33.508754 -116.264984 215 9845ft 190kts
02-Jun-20 20:19 33.465725 -116.302647 214 9846ft 190kts
02-Jun-20 20:20 33.422704 -116.340230 215 9918ft 189kts
02-Jun-20 20:21 33.379535 -116.377916 215 9920ft 193kts
02-Jun-20 20:22 33.335963 -116.415909 216 9920ft 194kts
02-Jun-20 20:23 33.292250 -116.454050 216 9920ft 194kts
02-Jun-20 20:24 33.248277 -116.492327 216 9920ft 194kts
02-Jun-20 20:25 33.204597 -116.530312 215 9919ft 193kts
02-Jun-20 20:26 33.160965 -116.568210 215 9920ft 193kts
02-Jun-20 20:27 33.112030 -116.588195 185 10052ft 186kts
02-Jun-20 20:28 33.060077 -116.594219 184 10057ft 188kts
02-Jun-20 20:29 33.007641 -116.599726 184 10057ft 188kts
02-Jun-20 20:30 32.958503 -116.613291 201 9969ft 178kts
02-Jun-20 20:31 32.910536 -116.636580 201 9282ft 190kts
02-Jun-20 20:32 32.868842 -116.674029 225 8617ft 188kts
02-Jun-20 20:33 32.833456 -116.719358 226 7962ft 186kts
02-Jun-20 20:34 32.798366 -116.764624 225 7308ft 186kts
02-Jun-20 20:35 32.766155 -116.811891 226 6662ft 176kts
02-Jun-20 20:36 32.736545 -116.856472 226 5924ft 168kts
02-Jun-20 20:37 32.712328 -116.904390 251 5176ft 177kts
02-Jun-20 20:38 32.700485 -116.959836 253 4658ft 168kts
02-Jun-20 20:39 32.698703 -117.011691 267 4619ft 160kts
02-Jun-20 20:40 32.703301 -117.058011 276 3596ft 118kts
02-Jun-20 20:41 32.710140 -117.092753 283 2199ft 97kts
02-Jun-20 20:42 32.717425 -117.122623 288 1158ft 94kts
02-Jun-20 20:43 32.724087 -117.150862 288 651ft 85kts
02-Jun-20 20:44 32.730599 -117.177580 288 111ft 84kts
02-Jun-20 20:45 32.734124 -117.190881 349 20ft 4kts
02-Jun-20 20:46 32.734640 -117.189429 107 20ft 9kts
02-Jun-20 20:47 32.733597 -117.185084 106 20ft 18kts
02-Jun-20 20:48 32.733022 -117.179648 15 20ft 12kts
02-Jun-20 20:49 32.733347 -117.177867 117 20ft 4kts

Navigation Log

Ident Type
Flight plan parsing failed, navigation log unavailable